Time;durP1;ratioP1;P1;durP2;ratioP2;P2;SDS_P1;SDS_P2;PMS_P1;PMS_P2;Temp;Humidity;BMP_temperature;BMP_pressure;BME280_temperature;BME280_humidity;BME280_pressure;Samples;Min_cycle;Max_cycle;Signal;HPM_P1;HPM_P2
2024/01/05 00:01:26;;;;;;;16.98;3.08;;;;;;;9.93;100.00;99094.69;8339357;28;20072;-60
2024/01/05 00:05:26;;;;;;;14.75;2.53;;;;;;;10.07;100.00;99080.53;8303379;28;20036;-60
2024/01/05 00:09:27;;;;;;;16.85;2.35;;;;;;;10.19;100.00;99068.34;8299195;28;20273;-62
2024/01/05 00:13:27;;;;;;;14.70;1.70;;;;;;;10.24;100.00;99082.16;8295585;28;20160;-60
2024/01/05 00:17:28;;;;;;;8.23;1.65;;;;;;;10.22;100.00;99077.94;8285733;28;20657;-63
2024/01/05 00:21:28;;;;;;;9.98;1.48;;;;;;;10.13;100.00;99063.63;8302230;28;20723;-60
2024/01/05 00:25:29;;;;;;;11.63;1.40;;;;;;;10.17;100.00;99058.72;8304907;28;20033;-57
2024/01/05 00:29:30;;;;;;;17.25;2.17;;;;;;;10.14;100.00;99059.06;8309486;28;20116;-60
2024/01/05 00:33:30;;;;;;;11.45;1.75;;;;;;;10.03;100.00;99052.13;8302264;28;20063;-60
2024/01/05 00:37:31;;;;;;;12.25;2.15;;;;;;;10.07;100.00;99048.13;8301889;28;20060;-60
2024/01/05 00:41:31;;;;;;;9.52;2.35;;;;;;;10.03;100.00;99041.34;8301907;28;20036;-60
2024/01/05 00:45:32;;;;;;;10.95;2.05;;;;;;;9.98;100.00;99035.63;8300382;28;20237;-60
2024/01/05 00:49:32;;;;;;;9.65;1.67;;;;;;;9.95;100.00;99022.47;8300156;28;20255;-60
2024/01/05 00:53:33;;;;;;;11.73;1.92;;;;;;;9.80;100.00;99024.19;8279137;28;20265;-60
2024/01/05 00:57:33;;;;;;;10.77;2.13;;;;;;;9.86;100.00;99028.91;8296333;28;20052;-61
2024/01/05 01:01:34;;;;;;;11.25;1.70;;;;;;;9.83;100.00;99023.84;8300487;28;20040;-60
2024/01/05 01:05:34;;;;;;;14.73;1.85;;;;;;;9.76;100.00;99018.28;8305190;28;20029;-60
2024/01/05 01:09:35;;;;;;;10.77;1.70;;;;;;;9.72;100.00;99008.00;8300802;28;20127;-60
2024/01/05 01:13:35;;;;;;;16.95;2.13;;;;;;;9.76;100.00;98996.72;8299553;28;20169;-61
2024/01/05 01:17:35;;;;;;;6.88;1.27;;;;;;;9.80;100.00;98997.22;8345856;28;20041;-59
2024/01/05 01:21:36;;;;;;;10.02;2.05;;;;;;;9.70;100.00;98993.88;8356809;28;20037;-58
2024/01/05 01:25:37;;;;;;;14.68;2.22;;;;;;;9.71;100.00;98985.59;8306490;28;20040;-60
2024/01/05 01:29:38;;;;;;;14.20;1.85;;;;;;;9.88;100.00;98989.06;8303108;28;20033;-60
2024/01/05 01:33:39;;;;;;;8.32;1.70;;;;;;;9.85;100.00;98990.28;8308583;28;20266;-60
2024/01/05 01:37:39;;;;;;;10.10;1.38;;;;;;;9.82;100.00;98987.91;8306824;28;20087;-60
2024/01/05 01:41:42;;;;;;;14.88;1.92;;;;;;;9.68;100.00;98982.41;8307082;28;20045;-60
2024/01/05 01:45:42;;;;;;;15.02;1.85;;;;;;;9.63;100.00;98984.75;8307216;28;20156;-60
2024/01/05 01:49:43;;;;;;;20.75;1.75;;;;;;;9.48;100.00;98997.25;8306669;28;20029;-60
2024/01/05 01:53:44;;;;;;;14.07;2.17;;;;;;;9.38;100.00;98997.47;8356524;28;20083;-57
2024/01/05 01:57:45;;;;;;;14.13;1.75;;;;;;;9.27;100.00;98999.66;8327737;28;20045;-60
2024/01/05 02:01:47;;;;;;;10.82;2.22;;;;;;;9.19;100.00;98988.88;8307125;28;20190;-60
2024/01/05 02:05:48;;;;;;;13.77;2.63;;;;;;;9.05;100.00;98990.38;8298599;28;20496;-60
2024/01/05 02:09:48;;;;;;;12.43;2.40;;;;;;;8.91;100.00;98977.56;8306619;28;20037;-60
2024/01/05 02:13:49;;;;;;;15.35;2.28;;;;;;;8.86;100.00;98968.31;8308248;28;20139;-60
2024/01/05 02:17:49;;;;;;;14.15;2.55;;;;;;;8.82;100.00;98961.59;8306338;28;20365;-60
2024/01/05 02:21:54;;;;;;;17.15;2.38;;;;;;;8.78;100.00;98957.56;8306431;28;20048;-58
2024/01/05 02:25:55;;;;;;;12.32;1.77;;;;;;;8.78;100.00;98944.09;8358625;28;20380;-59
2024/01/05 02:29:55;;;;;;;11.48;1.80;;;;;;;8.82;100.00;98945.41;8357044;28;20040;-60
2024/01/05 02:33:56;;;;;;;13.05;2.08;;;;;;;8.87;100.00;98943.03;8358838;28;20033;-60
2024/01/05 02:37:56;;;;;;;12.63;1.73;;;;;;;8.78;100.00;98920.66;8359221;28;20651;-60
2024/01/05 02:41:57;;;;;;;7.13;1.50;;;;;;;8.71;100.00;98921.50;8358384;28;20052;-59
2024/01/05 02:45:57;;;;;;;11.50;1.55;;;;;;;8.61;100.00;98907.34;8361055;28;20047;-60
2024/01/05 02:49:58;;;;;;;10.40;1.60;;;;;;;8.60;100.00;98903.81;8360414;28;20388;-59
2024/01/05 02:53:58;;;;;;;9.93;1.77;;;;;;;8.68;100.00;98892.19;8308670;28;20033;-59
2024/01/05 02:58:02;;;;;;;9.13;1.92;;;;;;;8.86;100.00;98887.47;8305578;28;20048;-59
2024/01/05 03:02:03;;;;;;;7.03;1.13;;;;;;;9.06;100.00;98884.25;8305371;28;20443;-57
2024/01/05 03:06:04;;;;;;;10.45;1.75;;;;;;;9.09;100.00;98883.91;8306177;28;20410;-58
2024/01/05 03:10:04;;;;;;;11.52;1.15;;;;;;;9.11;100.00;98887.28;8304622;28;20033;-59
2024/01/05 03:14:05;;;;;;;8.15;1.20;;;;;;;9.09;100.00;98888.47;8305689;28;20044;-59
2024/01/05 03:18:05;;;;;;;6.60;1.65;;;;;;;8.93;100.00;98880.41;8304786;28;20040;-58
2024/01/05 03:22:06;;;;;;;12.77;1.50;;;;;;;8.58;100.00;98880.75;8355934;28;20407;-59
2024/01/05 03:26:08;;;;;;;9.52;1.73;;;;;;;8.59;100.00;98879.75;8360257;28;20072;-59
2024/01/05 03:30:09;;;;;;;7.60;1.48;;;;;;;8.86;100.00;98874.00;8319875;28;20519;-59
2024/01/05 03:34:11;;;;;;;12.35;1.60;;;;;;;9.15;100.00;98860.84;8303650;28;20677;-58
2024/01/05 03:38:11;;;;;;;8.82;1.48;;;;;;;9.33;100.00;98864.16;8304090;28;20045;-58
2024/01/05 03:42:12;;;;;;;9.43;1.75;;;;;;;9.36;100.00;98859.25;8315714;28;20048;-59
2024/01/05 03:46:12;;;;;;;8.30;1.67;;;;;;;9.36;100.00;98864.63;8303931;28;20102;-59
2024/01/05 03:50:14;;;;;;;7.32;1.40;;;;;;;9.31;100.00;98860.78;8305445;28;20055;-59
2024/01/05 03:54:15;;;;;;;11.32;2.03;;;;;;;9.36;100.00;98869.19;8303907;28;20102;-59
2024/01/05 03:58:15;;;;;;;10.73;1.55;;;;;;;9.47;99.34;98866.13;8317800;28;20110;-59
2024/01/05 04:02:16;;;;;;;7.05;1.80;;;;;;;9.46;99.38;98857.19;8303005;28;20163;-56
2024/01/05 04:06:19;;;;;;;8.30;1.83;;;;;;;9.48;99.30;98874.03;8302375;28;20037;-57
2024/01/05 04:10:19;;;;;;;5.47;1.27;;;;;;;9.46;99.84;98864.44;8333054;28;20028;-59
2024/01/05 04:14:19;;;;;;;10.55;1.83;;;;;;;9.46;100.00;98851.78;8357918;28;20483;-59
2024/01/05 04:18:20;;;;;;;8.25;1.92;;;;;;;9.56;99.83;98854.28;8358085;28;20032;-59
2024/01/05 04:22:21;;;;;;;10.15;1.98;;;;;;;9.60;99.60;98847.53;8358047;28;20095;-60
2024/01/05 04:26:22;;;;;;;8.88;1.90;;;;;;;9.55;100.00;98836.44;8357432;28;20041;-59
2024/01/05 04:30:24;;;;;;;8.60;1.45;;;;;;;9.73;99.29;98818.16;8321547;28;20036;-58
2024/01/05 04:34:24;;;;;;;8.57;1.25;;;;;;;9.82;98.94;98839.50;8303769;28;20037;-58
2024/01/05 04:38:26;;;;;;;7.07;1.58;;;;;;;9.86;99.02;98823.78;8303110;28;20044;-57
2024/01/05 04:42:26;;;;;;;10.85;1.13;;;;;;;9.94;97.90;98823.72;8304025;28;20037;-59
2024/01/05 04:46:27;;;;;;;13.93;1.67;;;;;;;9.95;97.37;98822.72;8301767;28;20076;-59
2024/01/05 04:50:28;;;;;;;10.60;2.05;;;;;;;10.01;96.45;98811.22;8302271;28;20280;-59
2024/01/05 04:54:28;;;;;;;14.13;1.65;;;;;;;10.17;94.70;98799.47;8322367;28;20517;-57
2024/01/05 04:58:29;;;;;;;6.90;1.17;;;;;;;10.10;94.72;98809.34;8357367;28;20040;-57
2024/01/05 05:02:29;;;;;;;5.38;1.77;;;;;;;10.05;95.08;98812.53;8295017;28;20755;-59
2024/01/05 05:06:30;;;;;;;10.23;1.88;;;;;;;10.11;95.15;98821.81;8294823;28;20123;-59
2024/01/05 05:10:30;;;;;;;9.35;1.98;;;;;;;10.23;94.15;98801.47;8272896;28;20125;-59
2024/01/05 05:14:31;;;;;;;7.72;1.60;;;;;;;10.23;93.97;98799.63;8258338;28;20235;-59
2024/01/05 05:18:31;;;;;;;7.75;1.77;;;;;;;10.23;94.04;98799.63;8256459;28;20063;-58
2024/01/05 05:22:33;;;;;;;7.28;1.50;;;;;;;10.14;94.91;98779.09;8261156;28;20712;-58
2024/01/05 05:26:34;;;;;;;8.43;1.45;;;;;;;10.13;94.57;98793.63;8264480;28;20262;-59
2024/01/05 05:30:34;;;;;;;5.47;1.55;;;;;;;10.19;93.93;98787.50;8314666;28;20201;-59
2024/01/05 05:34:34;;;;;;;6.85;1.08;;;;;;;10.12;94.54;98781.13;8316148;28;20638;-59
2024/01/05 05:38:35;;;;;;;4.45;1.20;;;;;;;10.01;94.77;98770.72;8346713;28;20036;-56
2024/01/05 05:42:35;;;;;;;4.70;1.10;;;;;;;9.91;94.14;98784.44;8375214;28;20090;-56
2024/01/05 05:46:37;;;;;;;5.95;0.90;;;;;;;9.90;93.86;98777.38;8368595;28;20037;-57
2024/01/05 05:50:38;;;;;;;10.40;1.58;;;;;;;9.80;93.58;98765.94;8355768;28;20437;-56
2024/01/05 05:54:38;;;;;;;4.20;0.73;;;;;;;9.65;93.57;98764.22;8354768;28;20128;-56
2024/01/05 05:58:39;;;;;;;4.55;0.98;;;;;;;9.49;94.83;98761.63;8366136;28;20037;-57
2024/01/05 06:02:39;;;;;;;7.10;1.40;;;;;;;9.31;95.58;98766.41;8360328;28;20041;-56
2024/01/05 06:06:40;;;;;;;4.57;1.10;;;;;;;9.17;95.67;98756.34;8366617;28;20041;-56
2024/01/05 06:10:41;;;;;;;4.50;0.88;;;;;;;9.30;93.68;98762.06;8371252;28;20028;-57
2024/01/05 06:14:41;;;;;;;2.92;0.80;;;;;;;9.44;91.07;98766.69;8359853;28;20091;-58
2024/01/05 06:18:42;;;;;;;4.82;0.80;;;;;;;9.45;89.29;98765.66;8355885;28;20045;-57
2024/01/05 06:22:43;;;;;;;3.80;0.63;;;;;;;9.52;88.36;98761.25;8369433;28;20045;-56
2024/01/05 06:26:44;;;;;;;3.45;0.90;;;;;;;9.89;86.10;98758.66;8359906;28;20045;-56
2024/01/05 06:30:44;;;;;;;4.80;0.65;;;;;;;10.11;83.85;98757.84;8311314;28;20029;-59
2024/01/05 06:34:45;;;;;;;8.40;1.17;;;;;;;10.22;83.28;98770.09;8308037;28;20034;-59
2024/01/05 06:38:45;;;;;;;4.50;0.63;;;;;;;10.42;82.45;98766.69;8345880;28;20045;-56
2024/01/05 06:42:45;;;;;;;5.28;0.70;;;;;;;10.33;82.77;98757.00;8321226;28;20362;-59
2024/01/05 06:46:46;;;;;;;5.00;0.75;;;;;;;10.35;82.28;98760.38;8273383;28;20124;-59
2024/01/05 06:50:46;;;;;;;3.72;0.47;;;;;;;10.41;82.01;98759.63;8275839;28;20095;-59
2024/01/05 06:54:47;;;;;;;4.43;0.88;;;;;;;10.43;82.08;98752.16;8263141;28;20306;-59
2024/01/05 06:58:47;;;;;;;3.38;0.52;;;;;;;10.42;82.22;98755.91;8278273;28;20721;-59
2024/01/05 07:02:48;;;;;;;5.35;0.95;;;;;;;10.18;83.71;98752.59;8273290;28;20060;-58
2024/01/05 07:06:48;;;;;;;6.10;1.13;;;;;;;10.14;84.03;98752.09;8277618;28;20067;-58
2024/01/05 07:10:49;;;;;;;3.17;0.70;;;;;;;10.11;84.64;98741.66;8273318;28;20570;-59
2024/01/05 07:14:50;;;;;;;4.10;0.65;;;;;;;10.10;85.10;98747.25;8310510;28;20079;-59
2024/01/05 07:18:50;;;;;;;3.75;0.73;;;;;;;10.08;84.87;98747.41;8315225;28;20041;-59
2024/01/05 07:22:51;;;;;;;2.22;1.00;;;;;;;10.06;84.92;98770.19;8314237;28;20982;-59
2024/01/05 07:26:51;;;;;;;3.25;0.80;;;;;;;10.08;85.33;98763.63;8309707;28;20053;-59
2024/01/05 07:30:52;;;;;;;4.97;0.88;;;;;;;10.12;85.21;98767.63;8323906;28;20469;-59
2024/01/05 07:34:53;;;;;;;1.98;0.40;;;;;;;10.20;84.79;98778.38;8357305;28;20052;-56
2024/01/05 07:38:58;;;;;;;4.22;0.93;;;;;;;10.26;84.90;98780.34;8356544;28;20045;-56
2024/01/05 07:42:59;;;;;;;2.20;0.65;;;;;;;10.16;85.41;98787.00;8356712;28;20056;-56
2024/01/05 07:46:59;;;;;;;3.97;0.60;;;;;;;9.95;86.43;98796.56;8370501;28;20648;-56
2024/01/05 07:51:03;;;;;;;3.08;1.05;;;;;;;9.91;87.11;98807.88;8376808;28;20182;-56
2024/01/05 07:55:04;;;;;;;3.13;0.70;;;;;;;10.03;86.40;98806.47;8370212;28;20052;-56
2024/01/05 07:59:04;;;;;;;4.00;0.63;;;;;;;9.94;86.68;98810.22;8374168;28;20075;-56
2024/01/05 08:03:06;;;;;;;3.90;0.60;;;;;;;9.90;87.12;98808.91;8372563;28;20051;-57
2024/01/05 08:07:06;;;;;;;3.72;0.55;;;;;;;9.83;88.70;98805.25;8368828;28;20414;-57
2024/01/05 08:11:07;;;;;;;2.10;0.55;;;;;;;9.93;83.86;98795.91;8363039;28;20037;-60
2024/01/05 08:15:07;;;;;;;2.38;0.40;;;;;;;9.90;84.53;98804.38;8367449;28;20055;-61
2024/01/05 08:19:10;;;;;;;1.90;0.55;;;;;;;10.04;80.96;98808.16;8367570;28;20117;-60
2024/01/05 08:23:11;;;;;;;1.95;0.52;;;;;;;10.22;77.21;98807.91;8372928;28;20054;-60
2024/01/05 08:27:11;;;;;;;2.85;0.30;;;;;;;10.25;76.39;98811.09;8372608;28;20574;-58
2024/01/05 08:31:12;;;;;;;1.73;0.30;;;;;;;10.16;76.24;98820.25;8379021;28;20098;-57
2024/01/05 08:35:13;;;;;;;1.33;0.40;;;;;;;10.19;76.17;98835.25;8372532;28;20040;-58
2024/01/05 08:39:14;;;;;;;0.57;0.30;;;;;;;10.26;75.43;98834.38;8367531;28;20531;-57
2024/01/05 08:43:15;;;;;;;1.77;0.50;;;;;;;10.47;76.36;98839.94;8360019;28;20045;-58
2024/01/05 08:47:15;;;;;;;2.80;0.93;;;;;;;11.19;74.67;98841.13;8358983;28;20537;-58
2024/01/05 08:51:19;;;;;;;1.95;0.45;;;;;;;12.80;69.47;98842.44;8368147;28;20811;-59
2024/01/05 08:55:20;;;;;;;0.50;0.20;;;;;;;13.77;64.20;98840.44;8369313;28;20041;-55
2024/01/05 08:59:20;;;;;;;2.05;0.20;;;;;;;14.07;63.14;98851.84;8376050;28;20037;-57
2024/01/05 09:03:20;;;;;;;1.10;0.28;;;;;;;13.80;61.79;98834.59;8370913;28;20041;-56
2024/01/05 09:07:21;;;;;;;0.88;0.38;;;;;;;13.21;63.15;98851.59;8374876;28;20033;-57
2024/01/05 09:11:21;;;;;;;0.68;0.10;;;;;;;12.24;64.28;98854.19;8375064;28;20060;-56
2024/01/05 09:15:22;;;;;;;1.00;0.20;;;;;;;11.49;67.75;98865.31;8373012;28;20439;-57
2024/01/05 09:19:23;;;;;;;1.65;0.20;;;;;;;12.23;66.16;98874.19;8361426;28;20287;-59
2024/01/05 09:23:23;;;;;;;0.40;0.17;;;;;;;13.24;63.68;98859.34;8356429;28;20340;-57
2024/01/05 09:27:24;;;;;;;0.60;0.20;;;;;;;13.15;63.21;98872.19;8354511;28;20041;-58
2024/01/05 09:31:25;;;;;;;1.13;0.20;;;;;;;12.36;65.63;98877.91;8358513;28;20494;-62
2024/01/05 09:35:25;;;;;;;1.63;0.57;;;;;;;13.09;63.48;98877.56;8355895;28;20033;-59
2024/01/05 09:39:26;;;;;;;0.82;0.20;;;;;;;12.78;64.44;98879.78;8353833;28;20061;-59
2024/01/05 09:43:26;;;;;;;2.13;0.17;;;;;;;12.41;64.52;98888.16;8356158;28;20418;-58
2024/01/05 09:47:27;;;;;;;0.47;0.20;;;;;;;11.61;67.77;98884.59;8343766;28;20131;-57
2024/01/05 09:51:29;;;;;;;1.00;0.20;;;;;;;11.19;69.36;98895.22;8353641;28;20140;-56
2024/01/05 09:55:29;;;;;;;2.97;0.43;;;;;;;11.32;69.40;98890.84;8359026;28;20047;-57
2024/01/05 09:59:31;;;;;;;2.05;0.20;;;;;;;11.22;70.60;98887.56;8357653;28;20040;-60
2024/01/05 10:03:33;;;;;;;1.50;0.30;;;;;;;11.50;69.15;98894.03;8357904;28;20044;-58
2024/01/05 10:07:40;;;;;;;0.47;0.20;;;;;;;12.69;65.83;98897.22;8358633;28;20406;-55
2024/01/05 10:11:42;;;;;;;1.73;0.20;;;;;;;14.13;61.57;98894.53;8375367;28;20043;-56
2024/01/05 10:16:02;;;;;;;1.00;0.25;;;;;;;12.82;63.52;98898.19;8361664;28;20041;-57
2024/01/05 10:20:14;;;;;;;1.88;0.30;;;;;;;12.08;66.54;98897.78;8355971;28;20267;-56
2024/01/05 10:24:30;;;;;;;0.52;0.20;;;;;;;11.80;67.80;98905.72;8353551;28;20075;-56
2024/01/05 10:28:32;;;;;;;0.68;0.20;;;;;;;11.62;67.41;98892.56;8353855;28;20044;-55
2024/01/05 10:32:32;;;;;;;2.30;1.23;;;;;;;11.45;67.58;98903.75;8355987;28;20041;-59
2024/01/05 10:36:33;;;;;;;0.68;0.32;;;;;;;11.14;68.58;98909.31;8355706;28;20033;-57
2024/01/05 10:40:33;;;;;;;2.20;0.30;;;;;;;10.98;70.02;98898.63;8351121;28;20518;-58
2024/01/05 10:44:34;;;;;;;1.55;0.60;;;;;;;10.82;69.31;98904.16;8354606;28;20428;-57
2024/01/05 10:48:35;;;;;;;2.08;0.40;;;;;;;10.78;70.51;98916.38;8331943;28;20033;-56
2024/01/05 10:52:37;;;;;;;2.95;0.47;;;;;;;10.73;69.83;98926.88;8355073;28;20044;-58
2024/01/05 10:56:42;;;;;;;0.93;0.30;;;;;;;10.72;70.74;98930.59;8355167;28;20036;-57
2024/01/05 11:00:43;;;;;;;2.00;0.30;;;;;;;10.71;70.11;98906.47;8354389;28;20036;-59
2024/01/05 11:04:46;;;;;;;1.35;0.28;;;;;;;10.70;70.14;98911.00;8353606;28;20493;-58
2024/01/05 11:09:13;;;;;;;1.27;0.30;;;;;;;10.66;70.01;98909.72;8353855;28;20486;-58
2024/01/05 11:13:36;;;;;;;2.17;0.40;;;;;;;10.68;70.62;98891.47;8356583;28;20029;-56
2024/01/05 11:18:06;;;;;;;0.73;0.20;;;;;;;10.53;71.25;98893.25;8359329;28;20115;-56
2024/01/05 11:22:14;;;;;;;1.27;0.32;;;;;;;10.50;72.21;98896.31;8351677;28;20045;-57
2024/01/05 11:26:32;;;;;;;2.10;0.30;;;;;;;10.45;72.54;98893.31;8351153;28;20419;-57
2024/01/05 11:30:40;;;;;;;3.13;0.38;;;;;;;10.85;72.22;98881.31;8344870;28;20091;-57
2024/01/05 11:34:41;;;;;;;1.48;0.20;;;;;;;10.97;71.41;98901.50;8354227;28;20082;-56
2024/01/05 11:38:43;;;;;;;0.40;0.20;;;;;;;10.63;71.97;98893.84;8350412;28;20036;-56
2024/01/05 11:42:47;;;;;;;3.08;0.40;;;;;;;10.46;73.21;98903.09;8361282;28;20392;-57
2024/01/05 11:46:50;;;;;;;0.93;0.40;;;;;;;10.51;72.71;98916.91;8356561;28;20071;-57
2024/01/05 11:50:52;;;;;;;2.25;0.30;;;;;;;10.49;74.35;98926.22;8362945;28;20051;-58
2024/01/05 11:55:09;;;;;;;1.08;0.40;;;;;;;10.48;75.00;98911.84;8364293;28;20525;-59
2024/01/05 11:59:13;;;;;;;1.42;0.40;;;;;;;10.52;75.70;98909.66;8354104;28;21036;-57
2024/01/05 12:03:15;;;;;;;3.15;0.32;;;;;;;10.70;74.38;98886.69;8350699;28;20040;-57
2024/01/05 12:07:20;;;;;;;3.15;0.30;;;;;;;11.24;71.22;98872.00;8350313;28;20045;-59
2024/01/05 12:11:21;;;;;;;2.35;0.47;;;;;;;11.25;69.79;98872.81;8350139;28;20029;-57
2024/01/05 12:15:24;;;;;;;2.95;0.80;;;;;;;10.96;71.52;98868.25;8349763;28;20531;-58
2024/01/05 12:19:24;;;;;;;3.22;0.38;;;;;;;11.26;70.22;98875.34;8349949;28;20033;-58
2024/01/05 12:23:25;;;;;;;3.53;0.40;;;;;;;11.58;69.05;98857.91;8350697;28;20396;-57
2024/01/05 12:27:35;;;;;;;4.18;0.50;;;;;;;11.77;68.80;98849.25;8349725;28;20056;-57
2024/01/05 12:31:36;;;;;;;3.55;0.50;;;;;;;11.50;68.24;98872.38;8349856;28;20033;-58
2024/01/05 12:35:36;;;;;;;5.70;0.35;;;;;;;11.22;68.46;98876.75;8352848;28;20033;-57
2024/01/05 12:39:38;;;;;;;5.68;0.90;;;;;;;11.02;70.10;98872.91;8350222;28;20087;-57
2024/01/05 12:43:54;;;;;;;3.00;0.65;;;;;;;10.87;70.54;98855.81;8350093;28;20419;-58
2024/01/05 12:47:54;;;;;;;3.75;0.43;;;;;;;10.75;72.05;98859.13;8354393;28;20511;-57
2024/01/05 12:51:56;;;;;;;3.35;0.50;;;;;;;10.61;72.36;98863.47;8349318;28;20407;-59
2024/01/05 12:56:08;;;;;;;1.80;0.38;;;;;;;10.49;72.75;98861.38;8330593;28;20512;-59
2024/01/05 13:00:10;;;;;;;5.15;0.70;;;;;;;10.52;73.07;98869.94;8344807;28;20128;-59
2024/01/05 13:04:10;;;;;;;3.25;0.52;;;;;;;10.51;73.34;98878.22;8346859;28;20478;-59
2024/01/05 13:08:11;;;;;;;1.88;0.60;;;;;;;10.43;74.62;98881.81;8347611;28;20059;-59
2024/01/05 13:12:11;;;;;;;3.42;0.73;;;;;;;10.38;75.55;98881.53;8360076;28;20059;-59
2024/01/05 13:16:12;;;;;;;3.47;0.88;;;;;;;10.31;75.20;98894.06;8381603;28;20101;-62
2024/01/05 13:20:16;;;;;;;4.03;0.70;;;;;;;10.26;75.99;98896.47;8380995;28;20028;-59
2024/01/05 13:24:17;;;;;;;3.45;0.60;;;;;;;10.19;76.02;98894.66;8381049;28;20106;-58
2024/01/05 13:28:18;;;;;;;4.00;0.60;;;;;;;10.15;77.14;98899.56;8362799;28;20601;-59
2024/01/05 13:32:18;;;;;;;8.52;0.85;;;;;;;10.07;77.09;98913.13;8363373;28;20036;-59
2024/01/05 13:36:18;;;;;;;3.38;0.50;;;;;;;10.07;77.69;98913.13;8381022;28;20044;-57
2024/01/05 13:40:19;;;;;;;4.35;0.80;;;;;;;10.01;77.94;98903.00;8380348;28;20319;-59
2024/01/05 13:44:19;;;;;;;2.08;0.68;;;;;;;10.10;77.51;98904.69;8381683;28;20051;-58
2024/01/05 13:48:20;;;;;;;5.22;0.70;;;;;;;10.13;78.28;98901.63;8378514;28;20072;-59
2024/01/05 13:52:20;;;;;;;3.97;1.02;;;;;;;10.09;77.67;98913.78;8380869;28;20036;-59
2024/01/05 13:56:21;;;;;;;2.67;0.43;;;;;;;10.03;78.34;98909.91;8380563;28;20040;-59
2024/01/05 14:00:21;;;;;;;4.97;0.70;;;;;;;9.96;78.68;98917.03;8381585;28;20570;-59
2024/01/05 14:04:22;;;;;;;6.35;0.70;;;;;;;9.99;78.15;98905.03;8370605;28;20072;-60
2024/01/05 14:08:22;;;;;;;4.57;1.05;;;;;;;10.01;78.34;98917.31;8381379;28;20453;-57
2024/01/05 14:12:23;;;;;;;4.75;0.60;;;;;;;10.04;77.75;98918.84;8380699;28;20044;-59
2024/01/05 14:16:23;;;;;;;5.45;0.70;;;;;;;10.08;77.34;98930.16;8373264;28;20032;-60
2024/01/05 14:20:24;;;;;;;2.58;0.70;;;;;;;10.11;76.66;98930.66;8378509;28;20399;-60
2024/01/05 14:24:26;;;;;;;6.45;1.00;;;;;;;10.19;75.90;98930.63;8373426;28;20041;-59
2024/01/05 14:28:26;;;;;;;6.68;1.15;;;;;;;10.30;75.63;98941.00;8374486;28;20119;-57
2024/01/05 14:32:27;;;;;;;5.20;2.22;;;;;;;10.38;76.13;98938.28;8380883;28;20032;-58
2024/01/05 14:36:29;;;;;;;5.35;1.30;;;;;;;10.42;75.94;98945.00;8380530;28;20051;-58
2024/01/05 14:40:29;;;;;;;5.82;1.15;;;;;;;10.43;75.73;98941.25;8368354;28;20511;-59
2024/01/05 14:44:29;;;;;;;4.72;1.20;;;;;;;10.42;75.34;98939.59;8386859;28;20458;-59
2024/01/05 14:48:31;;;;;;;6.05;1.00;;;;;;;10.39;75.32;98942.66;8385383;28;20047;-59
2024/01/05 14:52:31;;;;;;;5.25;0.80;;;;;;;10.31;74.85;98939.97;8378353;28;20119;-59
2024/01/05 14:56:32;;;;;;;2.38;0.60;;;;;;;10.25;74.89;98935.31;8379729;28;20048;-58
2024/01/05 15:00:32;;;;;;;5.03;1.02;;;;;;;10.21;76.27;98947.47;8387589;28;20043;-60
2024/01/05 15:04:33;;;;;;;3.78;0.68;;;;;;;10.21;76.78;98944.78;8382902;28;20072;-59
2024/01/05 15:08:35;;;;;;;3.42;0.70;;;;;;;10.27;75.33;98956.75;8380539;28;20044;-59
2024/01/05 15:12:35;;;;;;;2.47;0.50;;;;;;;10.25;75.71;98945.28;8375899;28;20103;-59
2024/01/05 15:16:39;;;;;;;5.90;1.10;;;;;;;10.22;78.24;98940.22;8378303;28;20225;-60
2024/01/05 15:20:40;;;;;;;1.75;0.50;;;;;;;10.18;77.29;98942.41;8383217;28;20045;-60
2024/01/05 15:24:44;;;;;;;1.60;0.50;;;;;;;10.08;76.70;98931.00;8377531;28;20059;-59
2024/01/05 15:28:44;;;;;;;2.55;0.80;;;;;;;10.04;75.95;98935.03;8382368;28;20037;-59
2024/01/05 15:32:45;;;;;;;11.45;1.20;;;;;;;9.94;76.35;98929.84;8382210;28;20282;-60
2024/01/05 15:36:50;;;;;;;2.28;0.63;;;;;;;9.95;75.94;98936.09;8383000;28;20411;-60
2024/01/05 15:40:50;;;;;;;7.00;1.05;;;;;;;9.93;76.65;98943.53;8363047;28;20041;-57
2024/01/05 15:44:51;;;;;;;2.15;0.75;;;;;;;9.91;76.24;98940.16;8378817;28;20050;-59
2024/01/05 15:48:54;;;;;;;3.22;0.63;;;;;;;9.91;75.63;98940.16;8381591;28;20048;-59
2024/01/05 15:52:55;;;;;;;3.55;1.00;;;;;;;9.91;75.92;98945.53;8377297;28;20036;-59
2024/01/05 15:56:56;;;;;;;2.58;0.70;;;;;;;9.88;75.70;98956.69;8382380;28;20062;-59
2024/01/05 16:00:56;;;;;;;2.90;0.52;;;;;;;9.87;76.27;98966.66;8382163;28;20444;-59
2024/01/05 16:04:56;;;;;;;3.45;0.70;;;;;;;9.83;76.89;98969.88;8381287;28;20495;-58
2024/01/05 16:08:57;;;;;;;2.13;0.85;;;;;;;9.90;75.71;98981.66;8381269;28;20432;-57
2024/01/05 16:12:57;;;;;;;3.15;0.90;;;;;;;9.87;75.89;98976.59;8380567;28;20397;-59
2024/01/05 16:16:58;;;;;;;2.95;0.90;;;;;;;9.83;76.52;98977.97;8381120;28;20499;-58
2024/01/05 16:20:58;;;;;;;5.03;0.82;;;;;;;9.83;76.22;98980.69;8379342;28;20291;-59
2024/01/05 16:24:59;;;;;;;3.28;1.15;;;;;;;9.80;76.83;98981.03;8380186;28;20529;-59
2024/01/05 16:28:59;;;;;;;5.20;1.55;;;;;;;9.77;76.86;98981.38;8381159;28;20105;-59
2024/01/05 16:32:59;;;;;;;5.90;1.23;;;;;;;9.75;77.18;98988.78;8374529;28;20131;-60
2024/01/05 16:37:00;;;;;;;4.75;0.80;;;;;;;9.81;76.51;98990.78;8380268;28;20128;-57
2024/01/05 16:41:01;;;;;;;3.30;0.98;;;;;;;9.76;77.54;98979.69;8377579;28;20048;-59
2024/01/05 16:45:02;;;;;;;3.53;0.75;;;;;;;9.78;77.96;98983.03;8378382;28;20037;-57
2024/01/05 16:49:03;;;;;;;5.60;1.33;;;;;;;9.79;78.20;98987.44;8378185;28;20534;-57
2024/01/05 16:53:04;;;;;;;5.60;0.95;;;;;;;9.81;78.53;98985.41;8376132;28;20267;-57
2024/01/05 16:57:04;;;;;;;6.38;1.13;;;;;;;9.80;78.89;98994.50;8379083;28;20729;-58
2024/01/05 17:01:06;;;;;;;4.82;1.08;;;;;;;9.75;79.66;98980.69;8360274;28;20048;-57
2024/01/05 17:05:07;;;;;;;2.85;0.85;;;;;;;9.75;79.33;98991.47;8377987;28;20040;-58
2024/01/05 17:09:09;;;;;;;4.07;1.17;;;;;;;9.71;79.85;98999.09;8377950;28;20288;-57
2024/01/05 17:13:09;;;;;;;4.22;1.30;;;;;;;9.66;79.74;98995.22;8377312;28;20384;-57
2024/01/05 17:17:10;;;;;;;4.72;1.00;;;;;;;9.62;80.99;98993.88;8375749;28;20365;-59
2024/01/05 17:21:12;;;;;;;3.92;1.00;;;;;;;9.57;81.52;98997.09;8367528;28;20094;-58
2024/01/05 17:25:12;;;;;;;9.52;1.35;;;;;;;9.56;82.05;99013.44;8373682;28;20471;-57
2024/01/05 17:29:12;;;;;;;3.78;1.33;;;;;;;9.53;82.32;99014.63;8380881;28;20094;-56
2024/01/05 17:33:13;;;;;;;4.25;1.05;;;;;;;9.53;82.30;99013.78;8381676;28;20764;-58
2024/01/05 17:37:14;;;;;;;3.97;1.15;;;;;;;9.52;83.07;99012.13;8384348;28;20068;-57
2024/01/05 17:41:14;;;;;;;9.68;1.80;;;;;;;9.46;83.58;99020.88;8384271;28;20572;-56
2024/01/05 17:45:14;;;;;;;5.30;1.17;;;;;;;9.41;84.23;99021.41;8383233;28;20060;-57
2024/01/05 17:49:15;;;;;;;5.25;1.38;;;;;;;9.39;84.81;99019.84;8381329;28;20036;-57
2024/01/05 17:53:15;;;;;;;6.60;1.83;;;;;;;9.35;85.51;99023.91;8376837;28;20160;-57
2024/01/05 17:57:15;;;;;;;4.43;1.35;;;;;;;9.35;86.01;99024.78;8374484;28;20032;-58
2024/01/05 18:01:16;;;;;;;6.43;2.00;;;;;;;9.34;86.51;99036.53;8362906;28;20053;-58
2024/01/05 18:05:16;;;;;;;10.30;1.75;;;;;;;9.32;87.19;99040.44;8372974;28;20558;-57
2024/01/05 18:09:17;;;;;;;8.38;1.88;;;;;;;9.31;88.53;99044.16;8371503;28;20131;-57
2024/01/05 18:13:17;;;;;;;6.38;1.80;;;;;;;9.19;89.08;99040.97;8376647;28;20055;-58
2024/01/05 18:17:18;;;;;;;7.07;1.77;;;;;;;9.14;90.49;99058.63;8381295;28;20064;-56
2024/01/05 18:21:24;;;;;;;6.13;2.00;;;;;;;9.04;93.17;99063.34;8381486;28;20454;-56
2024/01/05 18:25:26;;;;;;;9.15;1.95;;;;;;;8.90;95.59;99069.34;8365420;28;20040;-57
2024/01/05 18:29:26;;;;;;;6.20;1.98;;;;;;;8.78;98.12;99079.63;8383453;28;20048;-57
2024/01/05 18:33:27;;;;;;;8.10;2.10;;;;;;;8.75;99.26;99092.59;8382216;28;20033;-57
2024/01/05 18:37:28;;;;;;;8.40;2.38;;;;;;;8.64;100.00;99098.25;8381913;28;20477;-57
2024/01/05 18:41:30;;;;;;;8.13;2.50;;;;;;;8.65;100.00;99097.25;8388310;28;20406;-56
2024/01/05 18:45:31;;;;;;;7.18;1.90;;;;;;;8.64;100.00;99103.66;8378767;28;20056;-56
2024/01/05 18:49:32;;;;;;;8.68;2.35;;;;;;;8.62;100.00;99100.25;8380954;28;20044;-58
2024/01/05 18:53:32;;;;;;;5.72;2.05;;;;;;;8.63;100.00;99104.66;8379292;28;20691;-59
2024/01/05 18:57:33;;;;;;;4.72;2.55;;;;;;;8.58;100.00;99109.69;8379498;28;20044;-59